Thursday, May 24, 2018, 9:42 AM GMT
Back to Local

CWIT, Saint Clothilde Automated Reporting Station

Location: , , Canada Lat: 45.167
Local Time: 9:42 AM GMT ( 9:42 GMT) Lon: -73.683
Time Zone: GMT Elev: 170 ft

Show me the last for .
Show Coded

Time T Td Feel RH Dir Speed Gust Alt SLP Vis Weather Sky Remarks
2018-05-24 09:00 52 34 - 49 300° 3 - - 30.08 0 None
2018-05-24 08:00 52 32 - 45 290° 3 - - 30.07 0 None
2018-05-24 07:00 55 29 - 37 290° 3 - - 30.05 0 None
2018-05-24 06:00 55 29 - 36 300° 5 - - 30.04 0 None
2018-05-24 05:00 56 29 - 34 310° 6 - - 30.02 0 None
2018-05-24 04:00 58 30 - 34 320° 6 - - 30.02 0 None
2018-05-24 03:00 57 33 - 39 300° 3 - - 30.01 0 None
2018-05-24 02:00 59 33 - 37 310° 3 - - 29.99 0 None
2018-05-24 01:00 62 36 - 38 300° 3 - - 29.97 0 None
2018-05-24 00:00 68 34 - 28 310° 3 - - 29.95 0 None
2018-05-23 23:00 71 35 - 26 320° 6 - - 29.93 0 Peak wind: 19 mph (17 kts) from 320° at 22 min
2018-05-23 22:00 72 32 - 22 310° 9 - - 29.91 0 Peak wind: 21 mph (19 kts) from 330° at 35 min
2018-05-23 21:00 74 34 - 23 320° 13 22 - 29.90 0 Peak wind: 21 mph (19 kts) from 300° at 56 min
2018-05-23 20:00 74 38 - 27 300° 13 21 - 29.89 0 Peak wind: 20 mph (18 kts) from 300° at 54 min
2018-05-23 19:00 71 49 76 45 290° 6 - - 29.89 0 None
2018-05-23 18:00 70 53 - 56 320° 6 - - 29.91 0 None
2018-05-23 17:00 69 54 - 58 280° 9 18 - 29.91 0 Peak wind: 19 mph (17 kts) from 280° at 20 min
2018-05-23 16:00 66 54 - 64 290° 9 17 - 29.91 0 Peak wind: 20 mph (18 kts) from 260° at 30 min
2018-05-23 15:00 64 54 - 69 290° 10 21 - 29.90 0 Peak wind: 20 mph (18 kts) from 280° at 11 min
2018-05-23 14:00 64 55 - 73 280° 9 - - 29.90 0 Peak wind: 19 mph (17 kts) from 290° at 14 min
2018-05-23 13:00 63 56 - 78 280° 9 - - 29.89 0 None
2018-05-23 12:00 58 55 - 87 260° 6 - - 29.88 0 None
2018-05-23 11:00 56 54 - 91 260° 7 - - 29.88 0 None
2018-05-23 10:00 56 54 - 94 260° 7 - - 29.87 0 None

Support USWX by starting your Amazon purchase here.